Time;durP1;ratioP1;P1;durP2;ratioP2;P2;SDS_P1;SDS_P2;PMS_P1;PMS_P2;Temp;Humidity;BMP_temperature;BMP_pressure;BME280_temperature;BME280_humidity;BME280_pressure;Samples;Min_cycle;Max_cycle;Signal;HPM_P1;HPM_P2
2022/11/30 00:00:19;;;;;;;;;;;20.00;57.80;;;;;;5053682;28;20262;-63
2022/11/30 00:02:48;;;;;;;;;;;20.00;58.30;;;;;;5054769;28;19909;-63
2022/11/30 00:05:14;;;;;;;;;;;20.00;58.10;;;;;;5054607;28;19992;-64
2022/11/30 00:07:41;;;;;;;;;;;20.00;58.40;;;;;;5054638;28;19909;-64
2022/11/30 00:10:08;;;;;;;;;;;20.00;58.10;;;;;;5054864;28;20003;-64
2022/11/30 00:12:35;;;;;;;;;;;20.10;59.30;;;;;;5054893;28;20003;-64
2022/11/30 00:15:01;;;;;;;;;;;20.10;59.50;;;;;;5054415;28;19946;-64
2022/11/30 00:17:28;;;;;;;;;;;20.10;58.40;;;;;;5054466;28;19916;-64
2022/11/30 00:19:54;;;;;;;;;;;20.20;59.60;;;;;;5054328;28;19908;-64
2022/11/30 00:22:21;;;;;;;;;;;20.20;60.20;;;;;;5054474;28;20007;-63
2022/11/30 00:24:47;;;;;;;;;;;20.20;58.50;;;;;;5054353;28;20421;-64
2022/11/30 00:27:14;;;;;;;;;;;20.20;59.30;;;;;;5054570;28;19920;-64
2022/11/30 00:29:41;;;;;;;;;;;20.30;60.10;;;;;;5054299;28;19909;-64
2022/11/30 00:32:07;;;;;;;;;;;20.30;60.40;;;;;;5054418;28;20267;-64
2022/11/30 00:34:34;;;;;;;;;;;20.40;60.10;;;;;;5054539;28;19909;-64
2022/11/30 00:37:00;;;;;;;;;;;20.40;57.90;;;;;;5053888;28;19979;-64
2022/11/30 00:39:27;;;;;;;;;;;20.40;60.30;;;;;;5054344;28;19955;-64
2022/11/30 00:41:53;;;;;;;;;;;20.50;59.50;;;;;;5053961;28;19913;-64
2022/11/30 00:44:20;;;;;;;;;;;20.50;59.00;;;;;;5054001;28;20371;-64
2022/11/30 00:46:47;;;;;;;;;;;20.30;59.10;;;;;;5054008;28;19948;-64
2022/11/30 00:49:13;;;;;;;;;;;20.40;60.40;;;;;;5053816;28;19909;-64
2022/11/30 00:51:40;;;;;;;;;;;20.30;59.60;;;;;;5054623;28;19909;-64
2022/11/30 00:54:06;;;;;;;;;;;20.30;60.20;;;;;;5039712;28;19980;-64
2022/11/30 00:56:33;;;;;;;;;;;20.20;59.80;;;;;;5053918;28;20309;-63
2022/11/30 00:59:00;;;;;;;;;;;20.20;61.00;;;;;;5054029;28;19908;-63
2022/11/30 01:01:26;;;;;;;;;;;20.10;60.80;;;;;;5053722;28;19944;-64
2022/11/30 01:03:53;;;;;;;;;;;20.10;61.10;;;;;;5053715;28;19912;-64
2022/11/30 01:06:19;;;;;;;;;;;20.10;61.70;;;;;;5053886;28;19967;-64
2022/11/30 01:08:46;;;;;;;;;;;20.10;61.00;;;;;;5053700;28;19913;-64
2022/11/30 01:11:26;;;;;;;;;;;20.00;61.40;;;;;;5053488;28;19909;-64
2022/11/30 01:13:53;;;;;;;;;;;20.10;61.90;;;;;;5053379;28;20385;-63
2022/11/30 01:16:21;;;;;;;;;;;20.10;60.20;;;;;;5053399;28;19917;-64
2022/11/30 01:18:47;;;;;;;;;;;20.00;61.30;;;;;;5069015;28;20425;-64
2022/11/30 01:21:15;;;;;;;;;;;20.10;61.70;;;;;;5053350;28;19912;-64
2022/11/30 01:23:42;;;;;;;;;;;20.10;60.20;;;;;;5053355;28;19917;-64
2022/11/30 01:26:09;;;;;;;;;;;20.10;60.90;;;;;;5053193;28;19909;-64
2022/11/30 01:28:35;;;;;;;;;;;20.20;61.40;;;;;;5053150;28;19932;-64
2022/11/30 01:31:03;;;;;;;;;;;20.30;62.20;;;;;;5053366;28;20343;-64
2022/11/30 01:33:30;;;;;;;;;;;20.30;62.30;;;;;;5053888;28;19919;-64
2022/11/30 01:36:06;;;;;;;;;;;20.40;61.20;;;;;;5053217;28;19998;-64
2022/11/30 01:38:37;;;;;;;;;;;20.40;61.10;;;;;;5052970;28;20396;-64
2022/11/30 01:41:04;;;;;;;;;;;20.40;62.60;;;;;;5053198;28;20325;-64
2022/11/30 01:43:46;;;;;;;;;;;20.40;61.90;;;;;;5052832;28;20380;-64
2022/11/30 01:46:22;;;;;;;;;;;20.40;61.10;;;;;;5053110;28;20305;-64
2022/11/30 01:48:49;;;;;;;;;;;20.50;61.70;;;;;;5051981;28;19916;-64
2022/11/30 01:51:16;;;;;;;;;;;20.50;61.60;;;;;;5068241;28;20348;-64
2022/11/30 01:53:42;;;;;;;;;;;20.70;61.50;;;;;;5056006;28;19910;-63
2022/11/30 01:56:09;;;;;;;;;;;20.80;62.90;;;;;;5051206;28;19912;-64
2022/11/30 01:58:35;;;;;;;;;;;20.90;61.40;;;;;;5053010;28;20374;-64
2022/11/30 02:01:02;;;;;;;;;;;20.90;59.60;;;;;;5052647;28;20020;-63
2022/11/30 02:03:38;;;;;;;;;;;21.00;60.20;;;;;;5052654;28;19916;-65
2022/11/30 02:06:05;;;;;;;;;;;21.20;60.70;;;;;;5067833;28;19908;-65
2022/11/30 02:08:31;;;;;;;;;;;21.30;59.60;;;;;;5052541;28;19960;-64
2022/11/30 02:10:58;;;;;;;;;;;21.30;59.20;;;;;;5052487;28;19948;-65
2022/11/30 02:13:40;;;;;;;;;;;21.30;59.40;;;;;;5052580;28;19909;-64
2022/11/30 02:16:26;;;;;;;;;;;21.30;57.90;;;;;;5067975;28;19913;-64
2022/11/30 02:19:05;;;;;;;;;;;21.10;58.60;;;;;;5052282;28;20366;-64
2022/11/30 02:21:40;;;;;;;;;;;20.80;58.40;;;;;;5052329;28;20248;-64
2022/11/30 02:24:25;;;;;;;;;;;20.90;59.90;;;;;;5067723;28;19974;-65
2022/11/30 02:27:07;;;;;;;;;;;20.90;59.20;;;;;;5052495;28;20313;-64
2022/11/30 02:29:35;;;;;;;;;;;20.90;59.30;;;;;;5052451;28;19971;-65
2022/11/30 02:32:02;;;;;;;;;;;20.80;59.20;;;;;;5067488;28;19940;-64
2022/11/30 02:34:29;;;;;;;;;;;20.80;59.60;;;;;;5052125;28;19909;-64
2022/11/30 02:36:55;;;;;;;;;;;20.80;58.60;;;;;;5067410;28;19940;-65
2022/11/30 02:39:22;;;;;;;;;;;20.80;60.30;;;;;;5067690;28;20317;-64
2022/11/30 02:41:49;;;;;;;;;;;20.90;59.70;;;;;;5051790;28;19916;-65
2022/11/30 02:44:15;;;;;;;;;;;21.00;59.60;;;;;;5052163;28;19964;-65
2022/11/30 02:46:54;;;;;;;;;;;21.10;59.00;;;;;;5067336;28;20288;-65
2022/11/30 02:49:27;;;;;;;;;;;21.10;60.30;;;;;;5052163;28;19955;-65
2022/11/30 02:51:53;;;;;;;;;;;21.10;59.60;;;;;;5083920;28;19908;-65
2022/11/30 02:54:20;;;;;;;;;;;21.20;58.70;;;;;;5037840;28;19948;-65
2022/11/30 02:56:46;;;;;;;;;;;21.10;57.70;;;;;;5052157;28;19975;-65
2022/11/30 02:59:13;;;;;;;;;;;21.10;59.30;;;;;;5052101;28;19955;-64
2022/11/30 03:01:41;;;;;;;;;;;21.00;58.50;;;;;;5056462;28;19909;-65
2022/11/30 03:04:07;;;;;;;;;;;21.00;58.50;;;;;;5055756;28;19960;-64
2022/11/30 03:06:34;;;;;;;;;;;20.90;58.10;;;;;;5055963;28;19909;-64
2022/11/30 03:09:01;;;;;;;;;;;20.90;58.30;;;;;;5055982;28;19913;-64
2022/11/30 03:11:27;;;;;;;;;;;20.80;59.70;;;;;;5055897;28;19936;-65
2022/11/30 03:13:54;;;;;;;;;;;20.80;59.80;;;;;;5055784;28;19909;-65
2022/11/30 03:16:20;;;;;;;;;;;20.80;58.20;;;;;;5055663;28;19987;-65
2022/11/30 03:18:47;;;;;;;;;;;20.70;59.10;;;;;;5056053;28;19962;-64
2022/11/30 03:21:13;;;;;;;;;;;20.80;60.20;;;;;;5055616;28;19956;-64
2022/11/30 03:23:40;;;;;;;;;;;20.80;61.20;;;;;;5055683;28;19928;-65
2022/11/30 03:26:07;;;;;;;;;;;20.80;60.00;;;;;;5055658;28;19909;-64
2022/11/30 03:28:34;;;;;;;;;;;20.80;61.00;;;;;;5055423;28;19909;-65
2022/11/30 03:31:01;;;;;;;;;;;20.80;59.80;;;;;;5055397;28;20354;-64
2022/11/30 03:33:27;;;;;;;;;;;20.70;60.40;;;;;;5055378;28;19909;-64
2022/11/30 03:36:01;;;;;;;;;;;20.60;59.30;;;;;;5055550;28;19952;-64
2022/11/30 03:38:27;;;;;;;;;;;20.60;59.90;;;;;;5055069;28;19924;-65
2022/11/30 03:41:00;;;;;;;;;;;20.60;60.70;;;;;;5055473;28;20401;-64
2022/11/30 03:43:27;;;;;;;;;;;20.60;60.20;;;;;;5054341;28;19921;-65
2022/11/30 03:45:54;;;;;;;;;;;20.60;60.50;;;;;;5054361;28;19936;-64
2022/11/30 03:48:22;;;;;;;;;;;20.60;59.60;;;;;;5052205;28;19995;-63
2022/11/30 03:50:49;;;;;;;;;;;20.70;59.90;;;;;;5043691;28;19913;-64
2022/11/30 03:53:19;;;;;;;;;;;20.70;60.30;;;;;;5045902;28;20405;-64
2022/11/30 03:55:46;;;;;;;;;;;20.70;59.80;;;;;;5041957;28;19909;-64
2022/11/30 03:58:12;;;;;;;;;;;20.70;59.80;;;;;;5052841;28;20379;-65
2022/11/30 04:00:39;;;;;;;;;;;20.70;60.00;;;;;;5053895;28;19917;-64
2022/11/30 04:03:06;;;;;;;;;;;20.70;60.90;;;;;;5054070;28;19909;-65
2022/11/30 04:05:32;;;;;;;;;;;20.80;60.80;;;;;;5054121;28;20019;-65
2022/11/30 04:07:59;;;;;;;;;;;20.80;59.50;;;;;;5048157;28;20232;-65
2022/11/30 04:10:26;;;;;;;;;;;20.80;59.60;;;;;;5048898;28;19917;-65
2022/11/30 04:12:52;;;;;;;;;;;20.80;59.40;;;;;;5047192;28;20302;-65
2022/11/30 04:15:19;;;;;;;;;;;20.80;57.00;;;;;;5054497;28;19917;-65
2022/11/30 04:17:45;;;;;;;;;;;20.80;57.80;;;;;;5066853;28;19913;-65
2022/11/30 04:20:12;;;;;;;;;;;20.80;58.10;;;;;;5053787;28;19924;-65
2022/11/30 05:06:39;;;;;;;;;;;20.80;56.70;;;;;;5053197;28;19979;-65
2022/11/30 05:09:06;;;;;;;;;;;20.80;56.30;;;;;;5054429;28;19913;-65
2022/11/30 05:11:33;;;;;;;;;;;20.90;57.20;;;;;;5052988;28;19919;-65
2022/11/30 05:13:59;;;;;;;;;;;20.80;56.60;;;;;;5053713;28;19916;-65
2022/11/30 05:16:26;;;;;;;;;;;20.80;56.60;;;;;;5057869;28;20329;-65
2022/11/30 05:18:52;;;;;;;;;;;20.80;56.40;;;;;;5053052;28;19932;-65
2022/11/30 05:21:19;;;;;;;;;;;20.80;57.00;;;;;;5055806;28;19912;-65
2022/11/30 05:23:47;;;;;;;;;;;20.60;55.20;;;;;;5054429;28;19967;-65
2022/11/30 05:26:14;;;;;;;;;;;20.60;56.90;;;;;;5055042;28;19913;-65
2022/11/30 05:28:41;;;;;;;;;;;20.60;57.50;;;;;;5044183;28;19948;-65
2022/11/30 05:31:07;;;;;;;;;;;20.60;57.90;;;;;;5055829;28;19909;-65
2022/11/30 05:33:34;;;;;;;;;;;20.60;58.00;;;;;;5056238;28;20002;-65
2022/11/30 05:36:00;;;;;;;;;;;20.60;56.50;;;;;;5052897;28;19938;-65
2022/11/30 05:38:27;;;;;;;;;;;20.60;56.60;;;;;;5057612;28;19920;-65
2022/11/30 05:41:02;;;;;;;;;;;20.50;57.70;;;;;;5053077;28;19958;-65
2022/11/30 05:43:29;;;;;;;;;;;20.50;57.70;;;;;;5057033;28;19921;-65
2022/11/30 05:45:59;;;;;;;;;;;20.50;56.90;;;;;;5046000;28;19916;-65
2022/11/30 05:48:26;;;;;;;;;;;20.40;57.00;;;;;;5048164;28;20003;-65
2022/11/30 05:50:53;;;;;;;;;;;20.40;58.10;;;;;;5052044;28;20006;-65
2022/11/30 05:53:19;;;;;;;;;;;20.40;58.70;;;;;;5043112;28;19924;-65
2022/11/30 05:55:46;;;;;;;;;;;20.40;58.20;;;;;;5059766;28;19927;-65
2022/11/30 05:58:12;;;;;;;;;;;20.40;56.70;;;;;;5059320;28;19912;-65
2022/11/30 06:00:39;;;;;;;;;;;20.30;57.30;;;;;;5040062;28;19913;-65
2022/11/30 06:03:06;;;;;;;;;;;20.40;57.70;;;;;;5052477;28;20371;-66
2022/11/30 11:03:26;;;;;;;;;;;19.20;68.40;;;;;;5043072;28;19940;-67
2022/11/30 11:06:22;;;;;;;;;;;19.20;67.80;;;;;;5046237;28;19972;-65
2022/11/30 11:08:48;;;;;;;;;;;19.10;68.10;;;;;;5038454;28;20031;-65
2022/11/30 11:11:25;;;;;;;;;;;19.10;67.40;;;;;;5049028;28;20424;-65
2022/11/30 11:13:52;;;;;;;;;;;19.10;67.30;;;;;;5064599;28;19913;-67
2022/11/30 11:16:18;;;;;;;;;;;19.10;67.00;;;;;;5030995;28;19916;-65
2022/11/30 11:18:52;;;;;;;;;;;19.10;66.80;;;;;;5049374;28;20638;-66
2022/11/30 11:21:18;;;;;;;;;;;19.10;66.70;;;;;;5051057;28;20035;-65
2022/11/30 11:23:45;;;;;;;;;;;19.10;66.60;;;;;;5053045;28;19931;-66
2022/11/30 11:26:19;;;;;;;;;;;19.10;66.60;;;;;;5034932;28;19975;-65
2022/11/30 11:28:46;;;;;;;;;;;19.10;66.70;;;;;;5022079;28;19935;-65
2022/11/30 11:31:18;;;;;;;;;;;19.10;67.10;;;;;;5068060;28;19913;-65
2022/11/30 11:33:51;;;;;;;;;;;19.10;66.60;;;;;;5043452;28;19917;-65
2022/11/30 11:36:23;;;;;;;;;;;19.20;66.50;;;;;;5047640;28;19913;-65
2022/11/30 11:38:50;;;;;;;;;;;19.10;66.20;;;;;;5045186;28;19977;-65
2022/11/30 11:41:19;;;;;;;;;;;19.10;66.00;;;;;;5046234;28;20012;-65
2022/11/30 11:43:55;;;;;;;;;;;19.10;65.60;;;;;;5053265;28;19924;-67
2022/11/30 11:46:22;;;;;;;;;;;19.10;65.70;;;;;;5059468;28;19968;-66
2022/11/30 11:48:55;;;;;;;;;;;19.10;65.60;;;;;;5054517;28;20000;-66
2022/11/30 11:51:35;;;;;;;;;;;19.10;66.00;;;;;;5036263;28;19944;-67
2022/11/30 11:54:14;;;;;;;;;;;19.10;66.00;;;;;;5043218;28;19909;-66
2022/11/30 11:56:40;;;;;;;;;;;19.10;65.80;;;;;;5054567;28;20286;-66
2022/11/30 11:59:10;;;;;;;;;;;19.10;65.60;;;;;;5052355;28;19919;-66
2022/11/30 12:01:48;;;;;;;;;;;19.10;66.00;;;;;;5054523;28;20866;-66
2022/11/30 12:04:33;;;;;;;;;;;19.10;65.60;;;;;;5049249;28;20422;-66
2022/11/30 12:07:00;;;;;;;;;;;19.10;65.80;;;;;;5018104;28;19914;-66
2022/11/30 12:09:28;;;;;;;;;;;19.10;66.00;;;;;;5038681;28;20367;-66
2022/11/30 12:11:55;;;;;;;;;;;19.10;65.90;;;;;;5026563;28;20368;-66
2022/11/30 12:14:24;;;;;;;;;;;19.10;65.70;;;;;;5023471;28;19996;-66
2022/11/30 12:16:50;;;;;;;;;;;19.10;65.00;;;;;;5034774;28;19913;-66
2022/11/30 12:19:17;;;;;;;;;;;19.10;65.20;;;;;;5026942;28;19989;-66
2022/11/30 12:22:02;;;;;;;;;;;19.10;65.20;;;;;;5021152;28;19960;-66
2022/11/30 12:24:35;;;;;;;;;;;19.10;65.00;;;;;;5020779;28;20287;-66
2022/11/30 12:27:11;;;;;;;;;;;19.10;64.90;;;;;;5021543;28;19914;-66
2022/11/30 12:30:08;;;;;;;;;;;19.10;65.30;;;;;;5029161;28;20466;-66
2022/11/30 12:32:53;;;;;;;;;;;19.10;65.40;;;;;;5009767;28;19944;-66
2022/11/30 12:35:38;;;;;;;;;;;19.10;66.00;;;;;;5022684;28;19920;-66
2022/11/30 12:38:09;;;;;;;;;;;19.10;65.40;;;;;;5023850;28;19913;-65
2022/11/30 12:40:42;;;;;;;;;;;19.10;65.00;;;;;;5026065;28;19940;-66
2022/11/30 12:43:17;;;;;;;;;;;19.10;64.90;;;;;;5021034;28;19916;-66
2022/11/30 12:45:44;;;;;;;;;;;19.10;65.00;;;;;;5027232;28;20028;-66
2022/11/30 12:48:17;;;;;;;;;;;19.10;65.30;;;;;;5050626;28;19916;-66
2022/11/30 12:50:56;;;;;;;;;;;19.20;65.50;;;;;;5027700;28;19909;-66
2022/11/30 12:53:23;;;;;;;;;;;19.20;65.80;;;;;;5036686;28;19917;-66
2022/11/30 12:56:11;;;;;;;;;;;19.10;66.00;;;;;;5013762;28;20303;-66
2022/11/30 12:58:46;;;;;;;;;;;19.10;66.40;;;;;;5031448;28;20410;-65
2022/11/30 13:01:17;;;;;;;;;;;19.10;66.60;;;;;;4999270;28;19950;-66
2022/11/30 13:03:47;;;;;;;;;;;19.10;66.20;;;;;;5020933;28;19920;-66
2022/11/30 13:06:21;;;;;;;;;;;19.10;66.30;;;;;;5053973;28;19936;-66
2022/11/30 13:09:02;;;;;;;;;;;19.20;66.50;;;;;;5035966;28;19912;-66
2022/11/30 13:11:33;;;;;;;;;;;19.10;66.70;;;;;;5053900;28;19916;-66
2022/11/30 13:14:00;;;;;;;;;;;19.10;67.00;;;;;;5054026;28;19909;-66
2022/11/30 13:16:27;;;;;;;;;;;19.10;67.10;;;;;;5053323;28;19908;-66
2022/11/30 13:18:57;;;;;;;;;;;19.10;67.20;;;;;;5053562;28;19924;-66
2022/11/30 13:21:27;;;;;;;;;;;19.10;67.00;;;;;;5053494;28;19916;-66
2022/11/30 13:24:17;;;;;;;;;;;19.10;67.20;;;;;;5053461;28;19928;-66
2022/11/30 13:26:43;;;;;;;;;;;19.10;66.90;;;;;;5045386;28;19916;-66
2022/11/30 13:29:26;;;;;;;;;;;19.10;67.20;;;;;;5053620;28;20283;-66
2022/11/30 13:31:55;;;;;;;;;;;19.00;67.40;;;;;;5035835;28;19955;-66
2022/11/30 13:34:22;;;;;;;;;;;19.10;67.70;;;;;;5053624;28;19909;-66
2022/11/30 13:36:49;;;;;;;;;;;19.00;68.00;;;;;;5053407;28;19921;-66
2022/11/30 13:39:20;;;;;;;;;;;19.10;67.70;;;;;;5035065;28;19913;-66
2022/11/30 13:41:47;;;;;;;;;;;19.10;68.20;;;;;;5053221;28;19956;-66
2022/11/30 13:44:21;;;;;;;;;;;19.00;68.10;;;;;;5033958;28;20410;-66
2022/11/30 13:46:49;;;;;;;;;;;19.10;68.00;;;;;;5052668;28;19966;-66
2022/11/30 13:49:34;;;;;;;;;;;19.00;67.90;;;;;;5035037;28;19917;-66
2022/11/30 13:52:04;;;;;;;;;;;19.10;67.90;;;;;;5053072;28;19909;-66
2022/11/30 13:54:40;;;;;;;;;;;19.10;67.80;;;;;;5021372;28;19912;-66
2022/11/30 13:57:25;;;;;;;;;;;19.10;68.00;;;;;;5034587;28;19935;-66
2022/11/30 13:59:55;;;;;;;;;;;19.00;68.10;;;;;;5040213;28;19996;-66
2022/11/30 14:03:03;;;;;;;;;;;19.00;68.50;;;;;;5052830;28;19912;-66
2022/11/30 14:05:23;;;;;;;;;;;19.10;68.50;;;;;;5042880;28;20023;-66
2022/11/30 14:07:50;;;;;;;;;;;19.10;68.70;;;;;;5052481;28;20064;-66
2022/11/30 14:10:25;;;;;;;;;;;19.10;68.70;;;;;;5052019;28;19920;-66
2022/11/30 14:12:58;;;;;;;;;;;19.10;68.50;;;;;;5052351;28;19912;-66
2022/11/30 14:15:37;;;;;;;;;;;19.10;69.00;;;;;;5052247;28;19924;-66
2022/11/30 14:18:07;;;;;;;;;;;19.00;69.00;;;;;;5051991;28;20381;-66
2022/11/30 14:20:36;;;;;;;;;;;19.10;68.90;;;;;;5052609;28;19975;-66
2022/11/30 14:23:06;;;;;;;;;;;19.10;68.90;;;;;;5052614;28;19916;-66
2022/11/30 14:25:33;;;;;;;;;;;19.10;69.20;;;;;;5067925;28;19923;-66
2022/11/30 14:27:59;;;;;;;;;;;19.10;69.30;;;;;;5051830;28;20043;-66
2022/11/30 14:30:26;;;;;;;;;;;19.10;69.20;;;;;;5067797;28;19920;-66
2022/11/30 14:32:57;;;;;;;;;;;19.10;69.60;;;;;;5067900;28;19916;-66
2022/11/30 14:35:27;;;;;;;;;;;19.00;69.30;;;;;;5067257;28;19912;-66
2022/11/30 14:37:57;;;;;;;;;;;19.00;69.50;;;;;;5034256;28;20430;-66
2022/11/30 14:40:24;;;;;;;;;;;19.00;69.80;;;;;;5050512;28;20318;-66
2022/11/30 14:42:52;;;;;;;;;;;19.10;69.80;;;;;;5034454;28;20289;-66
2022/11/30 14:45:29;;;;;;;;;;;19.00;70.00;;;;;;5051716;28;19929;-66
2022/11/30 14:48:08;;;;;;;;;;;19.10;70.20;;;;;;5067085;28;19938;-66
2022/11/30 14:50:34;;;;;;;;;;;19.00;70.10;;;;;;5051790;28;19916;-66
2022/11/30 14:53:07;;;;;;;;;;;19.00;70.70;;;;;;5045212;28;19909;-66
2022/11/30 14:55:33;;;;;;;;;;;19.10;71.20;;;;;;5050065;28;19913;-66
2022/11/30 14:58:20;;;;;;;;;;;19.00;70.90;;;;;;5051411;28;19959;-66
2022/11/30 15:00:47;;;;;;;;;;;19.00;70.90;;;;;;5044122;28;20263;-66
2022/11/30 15:03:26;;;;;;;;;;;19.00;70.90;;;;;;5052021;28;19916;-66
2022/11/30 15:05:57;;;;;;;;;;;19.00;71.00;;;;;;5051837;28;19921;-66
2022/11/30 15:08:23;;;;;;;;;;;19.00;70.40;;;;;;5051808;28;19909;-66
2022/11/30 15:10:50;;;;;;;;;;;19.00;70.70;;;;;;5067291;28;19963;-66
2022/11/30 15:13:17;;;;;;;;;;;19.00;71.00;;;;;;5067303;28;19936;-66
2022/11/30 15:15:51;;;;;;;;;;;19.00;71.30;;;;;;5051800;28;19916;-66
2022/11/30 15:18:18;;;;;;;;;;;19.00;71.40;;;;;;5051482;28;20350;-66
2022/11/30 15:20:47;;;;;;;;;;;19.00;71.30;;;;;;5047168;28;19921;-66
2022/11/30 15:23:14;;;;;;;;;;;19.00;70.90;;;;;;5031521;28;20383;-66
2022/11/30 15:25:48;;;;;;;;;;;19.00;70.70;;;;;;5049998;28;20000;-66
2022/11/30 15:28:17;;;;;;;;;;;19.00;70.40;;;;;;5062043;28;20298;-66
2022/11/30 15:30:44;;;;;;;;;;;19.00;70.70;;;;;;5043762;28;20387;-66
2022/11/30 15:33:16;;;;;;;;;;;19.00;71.00;;;;;;5067054;28;19913;-66
2022/11/30 15:35:44;;;;;;;;;;;19.00;71.10;;;;;;5051462;28;19963;-66
2022/11/30 15:38:13;;;;;;;;;;;19.00;70.80;;;;;;5046771;28;19917;-66
2022/11/30 15:40:40;;;;;;;;;;;19.00;70.80;;;;;;5033623;28;19935;-66
2022/11/30 15:43:11;;;;;;;;;;;19.00;71.00;;;;;;5051067;28;19912;-66
2022/11/30 15:45:40;;;;;;;;;;;19.00;71.20;;;;;;5033560;28;19948;-66
2022/11/30 15:48:24;;;;;;;;;;;18.90;70.80;;;;;;5051221;28;20287;-66
2022/11/30 15:50:51;;;;;;;;;;;19.00;71.00;;;;;;5066670;28;19940;-66
2022/11/30 15:53:20;;;;;;;;;;;19.00;71.30;;;;;;5050836;28;19920;-67
2022/11/30 15:55:48;;;;;;;;;;;18.90;71.30;;;;;;5047077;28;20011;-66
2022/11/30 15:58:24;;;;;;;;;;;19.00;70.80;;;;;;5033297;28;19909;-66
2022/11/30 16:01:19;;;;;;;;;;;19.00;70.80;;;;;;5051060;28;19913;-66
2022/11/30 16:03:55;;;;;;;;;;;19.00;70.40;;;;;;5049297;28;19921;-66
2022/11/30 16:06:22;;;;;;;;;;;19.00;70.70;;;;;;5051169;28;19917;-66
2022/11/30 16:08:48;;;;;;;;;;;19.00;70.90;;;;;;5069151;28;19908;-66
2022/11/30 16:11:16;;;;;;;;;;;19.00;70.80;;;;;;5070235;28;19909;-66
2022/11/30 16:13:43;;;;;;;;;;;19.00;70.90;;;;;;5069999;28;19922;-66
2022/11/30 16:16:28;;;;;;;;;;;19.00;70.30;;;;;;5054178;28;19913;-66
2022/11/30 16:18:55;;;;;;;;;;;19.00;70.40;;;;;;5054648;28;19913;-66
2022/11/30 16:21:22;;;;;;;;;;;19.00;70.40;;;;;;5054579;28;19945;-66
2022/11/30 16:23:48;;;;;;;;;;;19.00;70.60;;;;;;5054307;28;19909;-66
2022/11/30 16:26:16;;;;;;;;;;;19.00;70.70;;;;;;5054262;28;20003;-66
2022/11/30 16:28:42;;;;;;;;;;;19.00;70.90;;;;;;5053051;28;20013;-66
2022/11/30 16:31:27;;;;;;;;;;;19.00;70.90;;;;;;5042335;28;19979;-66
2022/11/30 16:33:53;;;;;;;;;;;19.00;71.20;;;;;;5054358;28;19924;-66
2022/11/30 16:36:20;;;;;;;;;;;19.00;70.40;;;;;;5053798;28;19920;-66
2022/11/30 16:38:50;;;;;;;;;;;19.00;70.60;;;;;;5054131;28;19916;-66
2022/11/30 16:41:16;;;;;;;;;;;19.00;70.80;;;;;;5054178;28;19909;-66
2022/11/30 16:43:43;;;;;;;;;;;19.00;70.20;;;;;;5054163;28;19974;-66
2022/11/30 16:46:28;;;;;;;;;;;19.00;70.50;;;;;;5036473;28;19913;-66
2022/11/30 16:48:55;;;;;;;;;;;19.00;70.80;;;;;;5054455;28;19913;-66
2022/11/30 16:51:24;;;;;;;;;;;19.00;70.70;;;;;;5053397;28;19913;-66
2022/11/30 16:53:51;;;;;;;;;;;19.00;70.80;;;;;;5053824;28;19913;-66
2022/11/30 16:56:17;;;;;;;;;;;19.00;70.70;;;;;;5053428;28;20004;-66
2022/11/30 16:58:44;;;;;;;;;;;19.00;70.90;;;;;;5054304;28;19964;-66
2022/11/30 17:01:13;;;;;;;;;;;18.90;70.50;;;;;;5053766;28;19995;-66
2022/11/30 17:03:39;;;;;;;;;;;18.90;70.70;;;;;;5053179;28;20426;-66
2022/11/30 17:06:07;;;;;;;;;;;18.90;70.90;;;;;;5035713;28;19913;-66
2022/11/30 17:08:34;;;;;;;;;;;18.90;70.80;;;;;;5068944;28;20397;-66
2022/11/30 17:11:01;;;;;;;;;;;19.00;70.90;;;;;;5053903;28;19948;-66
2022/11/30 17:13:27;;;;;;;;;;;19.00;70.90;;;;;;5053876;28;19912;-66
2022/11/30 17:15:54;;;;;;;;;;;19.00;70.70;;;;;;5053559;28;19909;-66
2022/11/30 17:18:21;;;;;;;;;;;19.00;70.60;;;;;;5053129;28;20386;-66
2022/11/30 17:20:47;;;;;;;;;;;18.90;70.20;;;;;;5053588;28;20007;-66
2022/11/30 17:23:14;;;;;;;;;;;19.00;70.30;;;;;;5053575;28;19912;-66
2022/11/30 17:25:41;;;;;;;;;;;19.00;70.10;;;;;;5053104;28;19972;-66
2022/11/30 17:28:08;;;;;;;;;;;18.90;70.30;;;;;;5052867;28;19920;-66
2022/11/30 17:30:34;;;;;;;;;;;19.00;70.50;;;;;;5042096;28;19999;-66
2022/11/30 17:33:01;;;;;;;;;;;19.00;70.70;;;;;;5068541;28;19914;-66
2022/11/30 17:35:27;;;;;;;;;;;19.00;70.60;;;;;;5052723;28;20294;-66
2022/11/30 17:37:54;;;;;;;;;;;19.00;70.90;;;;;;5053395;28;19909;-66
2022/11/30 17:40:21;;;;;;;;;;;19.00;70.40;;;;;;5053221;28;19915;-66
2022/11/30 17:42:47;;;;;;;;;;;18.90;70.30;;;;;;5053330;28;19916;-66
2022/11/30 17:45:14;;;;;;;;;;;18.90;70.60;;;;;;5053007;28;19967;-66
2022/11/30 17:47:40;;;;;;;;;;;18.90;71.00;;;;;;5052819;28;20294;-66
2022/11/30 17:50:07;;;;;;;;;;;19.00;71.30;;;;;;5053213;28;19996;-66
2022/11/30 17:52:34;;;;;;;;;;;19.00;71.90;;;;;;5052814;28;19913;-66
2022/11/30 17:55:01;;;;;;;;;;;19.00;71.40;;;;;;5049973;28;19912;-66
2022/11/30 17:57:27;;;;;;;;;;;19.00;71.40;;;;;;5047339;28;19917;-66
2022/11/30 17:59:54;;;;;;;;;;;19.00;71.60;;;;;;5052161;28;19925;-66
2022/11/30 18:02:21;;;;;;;;;;;19.00;71.40;;;;;;5052373;28;19985;-66
2022/11/30 18:04:47;;;;;;;;;;;19.00;71.70;;;;;;5034035;28;20429;-66
2022/11/30 18:07:14;;;;;;;;;;;18.90;71.80;;;;;;5052339;28;19921;-66
2022/11/30 18:09:41;;;;;;;;;;;19.00;71.80;;;;;;5052158;28;20378;-66
2022/11/30 18:12:07;;;;;;;;;;;19.00;71.50;;;;;;5052142;28;19915;-66
2022/11/30 18:14:34;;;;;;;;;;;18.90;71.20;;;;;;5057387;28;19912;-66
2022/11/30 18:17:00;;;;;;;;;;;19.00;71.50;;;;;;5054679;28;19940;-66
2022/11/30 18:19:27;;;;;;;;;;;19.00;71.50;;;;;;5056565;28;20290;-66
2022/11/30 18:21:54;;;;;;;;;;;18.90;71.90;;;;;;5055752;28;19905;-65
2022/11/30 18:24:21;;;;;;;;;;;18.90;71.70;;;;;;5054617;28;19980;-66
2022/11/30 18:26:48;;;;;;;;;;;18.90;71.50;;;;;;5056736;28;19919;-66
2022/11/30 18:29:14;;;;;;;;;;;18.90;71.10;;;;;;5048732;28;19913;-66
2022/11/30 18:31:41;;;;;;;;;;;18.90;71.40;;;;;;5043744;28;19909;-67
2022/11/30 18:34:09;;;;;;;;;;;18.90;71.40;;;;;;5051636;28;19913;-66
2022/11/30 18:36:36;;;;;;;;;;;18.90;71.30;;;;;;5051862;28;20322;-64
2022/11/30 18:39:02;;;;;;;;;;;18.90;71.50;;;;;;5052263;28;19964;-64
2022/11/30 18:41:29;;;;;;;;;;;18.90;71.40;;;;;;5051648;28;19913;-64
2022/11/30 18:43:56;;;;;;;;;;;18.90;71.40;;;;;;5052032;28;19931;-64
2022/11/30 18:46:23;;;;;;;;;;;18.80;70.70;;;;;;5052135;28;19912;-64
2022/11/30 18:48:49;;;;;;;;;;;18.80;71.00;;;;;;5052191;28;19916;-64
2022/11/30 18:51:17;;;;;;;;;;;18.80;71.10;;;;;;5051931;28;19963;-64
2022/11/30 18:53:44;;;;;;;;;;;18.80;70.90;;;;;;5052296;28;19974;-64
2022/11/30 18:56:12;;;;;;;;;;;18.80;71.00;;;;;;5052065;28;19909;-64
2022/11/30 18:58:39;;;;;;;;;;;18.90;71.30;;;;;;5052262;28;19915;-64
2022/11/30 19:01:06;;;;;;;;;;;18.80;71.20;;;;;;5051784;28;19913;-63
2022/11/30 19:03:33;;;;;;;;;;;18.80;70.70;;;;;;5051715;28;19984;-64
2022/11/30 19:06:03;;;;;;;;;;;18.80;70.70;;;;;;5051746;28;19923;-64
2022/11/30 19:08:30;;;;;;;;;;;18.80;70.80;;;;;;5052074;28;19919;-64
2022/11/30 19:11:06;;;;;;;;;;;18.80;70.50;;;;;;5051910;28;19909;-63
2022/11/30 19:13:33;;;;;;;;;;;18.90;70.70;;;;;;5038458;28;20330;-64
2022/11/30 19:16:03;;;;;;;;;;;18.90;70.60;;;;;;5052314;28;20326;-63
2022/11/30 19:18:29;;;;;;;;;;;18.90;70.80;;;;;;5051941;28;19956;-64
2022/11/30 19:20:56;;;;;;;;;;;18.90;70.90;;;;;;5051882;28;19908;-64
2022/11/30 19:23:23;;;;;;;;;;;18.90;71.10;;;;;;5051959;28;19971;-64
2022/11/30 19:25:50;;;;;;;;;;;18.90;71.10;;;;;;5051541;28;20011;-64
2022/11/30 19:28:16;;;;;;;;;;;18.90;71.30;;;;;;5051457;28;19909;-64
2022/11/30 19:30:43;;;;;;;;;;;19.00;71.10;;;;;;5037439;28;20374;-64
2022/11/30 19:33:09;;;;;;;;;;;19.00;70.80;;;;;;5052011;28;19908;-64
2022/11/30 19:35:37;;;;;;;;;;;19.00;71.20;;;;;;5051661;28;19908;-64
2022/11/30 19:38:03;;;;;;;;;;;19.00;71.30;;;;;;5051756;28;19952;-64
2022/11/30 19:40:30;;;;;;;;;;;19.00;71.20;;;;;;5051492;28;20366;-64
2022/11/30 19:42:58;;;;;;;;;;;19.00;71.20;;;;;;5052686;28;19920;-64
2022/11/30 19:45:24;;;;;;;;;;;19.00;71.00;;;;;;5055393;28;19921;-64
2022/11/30 19:47:51;;;;;;;;;;;19.00;71.30;;;;;;5055043;28;20007;-64
2022/11/30 19:50:17;;;;;;;;;;;19.00;71.30;;;;;;5055108;28;19919;-64
2022/11/30 19:52:44;;;;;;;;;;;19.00;70.80;;;;;;5055343;28;19912;-64
2022/11/30 19:55:11;;;;;;;;;;;19.00;71.20;;;;;;5055217;28;19912;-64
2022/11/30 19:57:37;;;;;;;;;;;19.00;70.80;;;;;;5055232;28;20436;-64
2022/11/30 20:00:07;;;;;;;;;;;19.00;70.50;;;;;;5054995;28;19913;-64
2022/11/30 20:02:34;;;;;;;;;;;19.00;70.20;;;;;;5054992;28;20388;-64
2022/11/30 20:05:00;;;;;;;;;;;19.00;70.40;;;;;;5054843;28;19928;-64
2022/11/30 20:07:27;;;;;;;;;;;19.00;70.60;;;;;;5055011;28;19916;-64
2022/11/30 20:09:53;;;;;;;;;;;19.00;70.90;;;;;;5054602;28;19909;-64